createdAt,value
2022-12-01T00:00:50.520Z,102428.88
2022-12-01T00:01:50.783Z,102428.47
2022-12-01T00:02:51.287Z,102428.12
2022-12-01T00:03:51.547Z,102428.14
2022-12-01T00:04:52.277Z,102428.45
2022-12-01T00:05:52.678Z,102427.94
2022-12-01T00:06:53.133Z,102427.72
2022-12-01T00:07:53.605Z,102427.61
2022-12-01T00:08:54.035Z,102427.38
2022-12-01T00:09:54.478Z,102427.05
2022-12-01T00:10:54.669Z,102427.55
2022-12-01T00:11:55.553Z,102427.05
2022-12-01T00:12:55.787Z,102426.45
2022-12-01T00:13:56.142Z,102426.19
2022-12-01T00:14:56.624Z,102426.27
2022-12-01T00:15:57.318Z,102425.70
2022-12-01T00:16:57.734Z,102425.53
2022-12-01T00:17:57.943Z,102425.53
2022-12-01T00:18:58.585Z,102425.44
2022-12-01T00:19:07.313Z,102428.88
2022-12-01T00:20:07.637Z,102428.95
2022-12-01T00:21:08.223Z,102428.28
2022-12-01T00:22:08.623Z,102427.95
2022-12-01T00:23:10.090Z,102427.45
2022-12-01T00:24:09.831Z,102426.77
2022-12-01T00:25:10.024Z,102426.21
2022-12-01T00:26:10.832Z,102425.70
2022-12-01T00:27:11.378Z,102425.70
2022-12-01T00:28:11.870Z,102425.55
2022-12-01T00:29:12.598Z,102424.85
2022-12-01T00:30:13.236Z,102424.42
2022-12-01T00:31:13.772Z,102424.76
2022-12-01T00:32:14.337Z,102424.53
2022-12-01T00:33:14.547Z,102424.36
2022-12-01T00:34:14.970Z,102424.09
2022-12-01T00:35:15.309Z,102424.02
2022-12-01T00:36:15.602Z,102424.03
2022-12-01T00:37:15.826Z,102424.61
2022-12-01T00:38:16.093Z,102424.43
2022-12-01T00:39:16.198Z,102424.28
2022-12-01T00:40:16.702Z,102424.77
2022-12-01T00:41:17.346Z,102424.84
2022-12-01T00:42:17.528Z,102424.36
2022-12-01T00:43:17.792Z,102424.44
2022-12-01T00:44:17.944Z,102424.42
2022-12-01T00:45:18.236Z,102424.09
2022-12-01T00:46:18.900Z,102424.25
2022-12-01T00:47:19.004Z,102424.00
2022-12-01T00:47:30.842Z,102432.58
2022-12-01T00:48:31.398Z,102432.75
2022-12-01T00:49:31.980Z,102431.74
2022-12-01T00:50:32.455Z,102430.40
2022-12-01T00:51:33.016Z,102429.95
2022-12-01T00:52:33.179Z,102428.95
2022-12-01T00:53:33.676Z,102428.03
2022-12-01T00:54:34.472Z,102426.70
2022-12-01T00:55:35.220Z,102426.28
2022-12-01T00:56:35.719Z,102425.27
2022-12-01T00:57:36.229Z,102424.27
2022-12-01T00:58:36.961Z,102424.16
2022-12-01T00:59:37.689Z,102423.33
2022-12-01T01:00:39.000Z,102423.25
2022-12-01T01:01:39.682Z,102422.58
2022-12-01T01:02:39.990Z,102421.98
2022-12-01T01:03:39.231Z,102421.16
2022-12-01T01:04:39.623Z,102420.56
2022-12-01T01:05:40.096Z,102420.00
2022-12-01T01:06:40.354Z,102419.06
2022-12-01T01:07:41.351Z,102418.81
2022-12-01T01:08:41.527Z,102418.48
2022-12-01T01:09:42.880Z,102417.38
2022-12-01T01:10:42.111Z,102417.22
2022-12-01T01:11:43.135Z,102416.64
2022-12-01T01:12:42.711Z,102415.89
2022-12-01T01:13:44.212Z,102415.62
2022-12-01T01:14:44.592Z,102415.20
2022-12-01T01:14:53.332Z,102410.78
2022-12-01T01:15:53.596Z,102411.28
2022-12-01T01:16:55.014Z,102410.86
2022-12-01T01:17:54.192Z,102411.20
2022-12-01T01:18:54.519Z,102411.10
2022-12-01T01:19:54.874Z,102410.70
2022-12-01T01:20:56.463Z,102411.04
2022-12-01T01:21:55.979Z,102410.95
2022-12-01T01:22:57.476Z,102411.11
2022-12-01T01:23:58.307Z,102411.19
2022-12-01T01:24:57.753Z,102411.52
2022-12-01T01:25:57.895Z,102411.77
2022-12-01T01:26:58.479Z,102411.54
2022-12-01T01:27:59.276Z,102412.21
2022-12-01T01:29:00.526Z,102412.28
2022-12-01T01:30:00.203Z,102412.10
2022-12-01T01:31:00.525Z,102412.38
2022-12-01T01:32:00.866Z,102413.05
2022-12-01T01:33:02.133Z,102413.63
2022-12-01T01:34:01.938Z,102413.53
2022-12-01T01:35:02.318Z,102414.03
2022-12-01T01:36:03.616Z,102414.38
2022-12-01T01:37:04.111Z,102415.21
2022-12-01T01:38:03.504Z,102415.88
2022-12-01T01:39:05.215Z,102416.39
2022-12-01T01:39:15.900Z,102427.05
2022-12-01T01:40:16.084Z,102426.95
2022-12-01T01:41:16.531Z,102426.45
2022-12-01T01:42:16.811Z,102426.11
2022-12-01T01:43:17.065Z,102425.61
2022-12-01T01:44:18.009Z,102425.10
2022-12-01T01:45:18.694Z,102424.94
2022-12-01T01:46:19.092Z,102424.94
2022-12-01T01:47:19.351Z,102424.86
2022-12-01T01:48:19.915Z,102424.53
2022-12-01T01:49:20.516Z,102424.62
2022-12-01T01:50:21.868Z,102425.02
2022-12-01T01:51:21.753Z,102425.44
2022-12-01T01:52:22.492Z,102425.36
2022-12-01T01:53:23.484Z,102425.45
2022-12-01T01:54:23.737Z,102425.52
2022-12-01T01:55:25.268Z,102426.11
2022-12-01T01:56:24.435Z,102427.14
2022-12-01T01:57:25.714Z,102426.80
2022-12-01T01:58:25.212Z,102427.36
2022-12-01T01:59:25.280Z,102427.03
2022-12-01T02:00:26.631Z,102427.30
2022-12-01T02:01:27.627Z,102427.81
2022-12-01T02:02:26.728Z,102427.88
2022-12-01T02:03:27.090Z,102427.20
2022-12-01T02:04:28.635Z,102427.30
2022-12-01T02:05:29.020Z,102427.13
2022-12-01T02:05:37.645Z,102438.45
2022-12-01T02:06:38.598Z,102438.52
2022-12-01T02:07:40.187Z,102437.34
2022-12-01T02:08:39.407Z,102436.84
2022-12-01T02:09:40.813Z,102436.44
2022-12-01T02:10:40.162Z,102435.59
2022-12-01T02:11:40.789Z,102434.33
2022-12-01T02:12:42.629Z,102433.49
2022-12-01T02:13:43.017Z,102432.66
2022-12-01T02:14:43.905Z,102432.31
2022-12-01T02:15:43.249Z,102431.39
2022-12-01T02:16:44.610Z,102430.33
2022-12-01T02:17:43.645Z,102429.82
2022-12-01T02:18:43.784Z,102428.89
2022-12-01T02:19:44.007Z,102428.46
2022-12-01T02:20:44.373Z,102427.86
2022-12-01T02:21:45.731Z,102427.97
2022-12-01T02:22:48.271Z,102427.38
2022-12-01T02:23:45.577Z,102427.55
2022-12-01T02:24:46.089Z,102427.28
2022-12-01T02:25:46.305Z,102426.78
2022-12-01T02:26:47.250Z,102426.28
2022-12-01T02:27:48.817Z,102425.77
2022-12-01T02:28:48.676Z,102425.27
2022-12-01T02:29:50.708Z,102424.09
2022-12-01T02:30:01.021Z,102419.81
2022-12-01T02:31:01.263Z,102420.48
2022-12-01T02:32:02.224Z,102419.98
2022-12-01T02:33:02.316Z,102420.08
2022-12-01T02:34:02.420Z,102419.57
2022-12-01T02:35:03.707Z,102419.16
2022-12-01T02:36:02.886Z,102418.33
2022-12-01T02:37:03.067Z,102418.08
2022-12-01T02:38:04.296Z,102417.80
2022-12-01T02:39:04.408Z,102417.39
2022-12-01T02:40:03.716Z,102417.66
2022-12-01T02:41:05.393Z,102417.31
2022-12-01T02:42:04.612Z,102417.48
2022-12-01T02:43:04.951Z,102416.73
2022-12-01T02:44:05.059Z,102417.06
2022-12-01T02:45:05.826Z,102416.63
2022-12-01T02:46:06.417Z,102416.57
2022-12-01T02:47:06.706Z,102416.14
2022-12-01T02:48:08.400Z,102415.81
2022-12-01T02:49:08.565Z,102415.55
2022-12-01T02:50:07.981Z,102415.55
2022-12-01T02:51:09.578Z,102415.22
2022-12-01T02:52:10.206Z,102415.14
2022-12-01T02:53:10.022Z,102414.47
2022-12-01T02:54:11.712Z,102414.30
2022-12-01T02:54:20.357Z,102412.63
2022-12-01T02:55:20.710Z,102412.70
2022-12-01T02:56:22.651Z,102413.13
2022-12-01T02:57:22.254Z,102412.80
2022-12-01T02:58:22.476Z,102412.63
2022-12-01T02:59:23.712Z,102412.97
2022-12-01T03:00:24.001Z,102412.70
2022-12-01T03:01:23.295Z,102412.80
2022-12-01T03:02:23.677Z,102412.30
2022-12-01T03:03:23.915Z,102412.61
2022-12-01T03:04:24.450Z,102412.03
2022-12-01T03:05:24.948Z,102412.02
2022-12-01T03:06:25.110Z,102412.13
2022-12-01T03:07:25.725Z,102412.38
2022-12-01T03:08:25.998Z,102411.86
2022-12-01T03:09:26.429Z,102411.11
2022-12-01T03:10:27.731Z,102411.42
2022-12-01T03:11:27.050Z,102411.52
2022-12-01T03:12:27.342Z,102411.28
2022-12-01T03:13:28.185Z,102411.03
2022-12-01T03:14:28.743Z,102410.53
2022-12-01T03:15:29.324Z,102410.20
2022-12-01T03:16:30.586Z,102409.59
2022-12-01T03:17:29.998Z,102409.00
2022-12-01T03:18:31.256Z,102408.67
2022-12-01T03:18:39.916Z,102413.79
2022-12-01T03:19:40.222Z,102413.79
2022-12-01T03:20:41.914Z,102412.45
2022-12-01T03:21:40.998Z,102411.44
2022-12-01T03:22:41.945Z,102410.44
2022-12-01T03:23:42.507Z,102409.27
2022-12-01T03:24:43.754Z,102408.52
2022-12-01T03:25:42.817Z,102407.60
2022-12-01T03:26:44.294Z,102406.43
2022-12-01T03:28:00.623Z,102405.66
2022-12-01T03:28:44.117Z,102405.07
2022-12-01T03:29:44.821Z,102403.82
2022-12-01T03:30:45.156Z,102403.21
2022-12-01T03:31:45.952Z,102402.22
2022-12-01T03:32:46.240Z,102401.53
2022-12-01T03:33:46.277Z,102401.48
2022-12-01T03:34:47.966Z,102400.95
2022-12-01T03:35:47.127Z,102400.55
2022-12-01T03:36:48.635Z,102399.44
2022-12-01T03:37:48.051Z,102398.86
2022-12-01T03:38:48.288Z,102398.02
2022-12-01T03:39:50.069Z,102398.02
2022-12-01T03:40:48.767Z,102396.92
2022-12-01T03:41:49.136Z,102396.75
2022-12-01T03:42:49.257Z,102396.02
2022-12-01T03:43:49.576Z,102396.19
2022-12-01T03:43:58.243Z,102399.36
2022-12-01T03:44:58.539Z,102399.86
2022-12-01T03:46:00.341Z,102399.02
2022-12-01T03:46:59.564Z,102398.61
2022-12-01T03:48:00.086Z,102397.86
2022-12-01T03:49:01.357Z,102397.17
2022-12-01T03:50:01.653Z,102396.43
2022-12-01T03:51:01.972Z,102395.50
2022-12-01T03:52:02.183Z,102395.02
2022-12-01T03:53:03.004Z,102394.01
2022-12-01T03:54:02.443Z,102393.56
2022-12-01T03:55:04.255Z,102393.23
2022-12-01T03:56:03.540Z,102392.22
2022-12-01T03:57:04.342Z,102391.33
2022-12-01T03:58:05.213Z,102391.16
2022-12-01T03:59:05.463Z,102390.06
2022-12-01T04:00:06.762Z,102389.72
2022-12-01T04:01:06.328Z,102389.46
2022-12-01T04:02:08.047Z,102388.87
2022-12-01T04:03:07.265Z,102388.30
2022-12-01T04:04:07.918Z,102388.21
2022-12-01T04:05:09.200Z,102388.21
2022-12-01T04:05:21.227Z,102395.69
2022-12-01T04:06:18.665Z,102395.42
2022-12-01T04:07:20.389Z,102395.02
2022-12-01T04:08:19.897Z,102394.73
2022-12-01T04:09:20.528Z,102394.23
2022-12-01T04:10:21.825Z,102393.73
2022-12-01T04:11:22.755Z,102393.06
2022-12-01T04:12:22.108Z,102392.89
2022-12-01T04:13:22.972Z,102392.98
2022-12-01T04:14:23.941Z,102392.82
2022-12-01T04:15:24.421Z,102392.31
2022-12-01T04:16:26.140Z,102391.72
2022-12-01T04:17:25.332Z,102391.98
2022-12-01T04:18:25.656Z,102391.64
2022-12-01T04:19:27.242Z,102391.73
2022-12-01T04:20:26.940Z,102391.14
2022-12-01T04:21:28.891Z,102391.06
2022-12-01T04:22:29.378Z,102391.06
2022-12-01T04:23:29.764Z,102390.98
2022-12-01T04:24:29.201Z,102391.14
2022-12-01T04:25:29.541Z,102390.88
2022-12-01T04:26:30.975Z,102390.90
2022-12-01T04:27:31.274Z,102390.55
2022-12-01T04:28:30.722Z,102391.07
2022-12-01T04:29:32.380Z,102390.79
2022-12-01T04:29:41.032Z,102391.81
2022-12-01T04:30:41.684Z,102392.16
2022-12-01T04:31:43.383Z,102391.31
2022-12-01T04:32:42.975Z,102390.81
2022-12-01T04:33:43.502Z,102390.40
2022-12-01T04:34:44.800Z,102390.38
2022-12-01T04:35:45.654Z,102390.14
2022-12-01T04:36:46.279Z,102390.53
2022-12-01T04:37:46.486Z,102390.20
2022-12-01T04:38:46.521Z,102389.95
2022-12-01T04:39:47.158Z,102389.55
2022-12-01T04:40:45.998Z,102388.88
2022-12-01T04:41:46.423Z,102388.97
2022-12-01T04:42:46.657Z,102388.30
2022-12-01T04:43:46.876Z,102387.62
2022-12-01T04:44:47.193Z,102387.03
2022-12-01T04:45:48.638Z,102386.70
2022-12-01T04:46:49.605Z,102385.93
2022-12-01T04:47:49.119Z,102385.59
2022-12-01T04:48:49.950Z,102385.00
2022-12-01T04:49:51.917Z,102384.61
2022-12-01T04:50:50.732Z,102384.44
2022-12-01T04:50:59.430Z,102381.59
2022-12-01T04:51:59.691Z,102381.50
2022-12-01T04:53:01.254Z,102381.33
2022-12-01T04:54:00.481Z,102380.73
2022-12-01T04:55:01.106Z,102379.63
2022-12-01T04:56:01.350Z,102378.91
2022-12-01T04:57:02.697Z,102377.80
2022-12-01T04:58:02.649Z,102377.21
2022-12-01T04:59:03.034Z,102376.39
2022-12-01T05:00:03.432Z,102375.64
2022-12-01T05:01:04.013Z,102374.95
2022-12-01T05:02:04.724Z,102374.86
2022-12-01T05:03:06.366Z,102374.03
2022-12-01T05:04:06.169Z,102373.85
2022-12-01T05:05:06.400Z,102373.45
2022-12-01T05:06:06.465Z,102373.03
2022-12-01T05:07:06.843Z,102372.77
2022-12-01T05:08:07.720Z,102372.54
2022-12-01T05:09:08.026Z,102372.45
2022-12-01T05:10:08.950Z,102372.45
2022-12-01T05:11:10.199Z,102372.28
2022-12-01T05:12:10.477Z,102372.02
2022-12-01T05:13:11.277Z,102371.77
2022-12-01T05:14:10.468Z,102371.88
2022-12-01T05:15:10.790Z,102372.03
2022-12-01T05:16:11.499Z,102371.53
2022-12-01T05:17:12.004Z,102372.02
2022-12-01T05:18:13.737Z,102372.11
2022-12-01T05:18:23.410Z,102373.86
2022-12-01T05:19:23.735Z,102374.19
2022-12-01T05:20:25.401Z,102374.36
2022-12-01T05:21:25.021Z,102373.93
2022-12-01T05:22:56.809Z,102373.77
2022-12-01T05:23:26.393Z,102373.77
2022-12-01T05:24:27.591Z,102373.42
2022-12-01T05:25:26.914Z,102373.86
2022-12-01T05:26:28.106Z,102373.52
2022-12-01T05:27:28.606Z,102373.35
2022-12-01T05:28:28.240Z,102373.03
2022-12-01T05:29:28.619Z,102373.02
2022-12-01T05:30:29.521Z,102372.44
2022-12-01T05:31:29.718Z,102372.25
2022-12-01T05:32:29.713Z,102371.59
2022-12-01T05:33:30.280Z,102371.67
2022-12-01T05:34:31.433Z,102371.45
2022-12-01T05:35:31.964Z,102371.61
2022-12-01T05:36:32.592Z,102371.19
2022-12-01T05:37:33.057Z,102370.76
2022-12-01T05:38:32.495Z,102370.27
2022-12-01T05:39:33.622Z,102370.09
2022-12-01T05:40:33.873Z,102369.94
2022-12-01T05:41:33.373Z,102369.33
2022-12-01T05:41:42.010Z,102370.70
2022-12-01T05:42:42.165Z,102370.70
2022-12-01T05:43:42.516Z,102370.04
2022-12-01T05:44:43.154Z,102369.76
2022-12-01T05:45:43.303Z,102368.92
2022-12-01T05:46:43.634Z,102369.02
2022-12-01T05:47:43.922Z,102368.77
2022-12-01T05:48:45.452Z,102368.36
2022-12-01T05:49:45.838Z,102367.92
2022-12-01T05:50:44.943Z,102367.41
2022-12-01T05:51:45.665Z,102367.08
2022-12-01T05:52:47.097Z,102366.41
2022-12-01T05:53:47.740Z,102365.52
2022-12-01T05:54:47.016Z,102365.34
2022-12-01T05:55:48.463Z,102364.41
2022-12-01T05:56:47.741Z,102364.24
2022-12-01T05:57:49.394Z,102364.08
2022-12-01T05:58:48.667Z,102364.17
2022-12-01T05:59:49.607Z,102364.23
2022-12-01T06:00:49.694Z,102364.32
2022-12-01T06:01:49.923Z,102363.58
2022-12-01T06:02:50.129Z,102363.47
2022-12-01T06:03:51.543Z,102363.81
2022-12-01T06:04:50.696Z,102363.91
2022-12-01T06:05:52.331Z,102363.58
2022-12-01T06:06:51.678Z,102363.24
2022-12-01T06:07:52.134Z,102363.97
2022-12-01T06:08:04.220Z,102371.03
2022-12-01T06:09:04.379Z,102370.77
2022-12-01T06:10:04.888Z,102370.34
2022-12-01T06:11:05.092Z,102370.62
2022-12-01T06:12:05.517Z,102370.02
2022-12-01T06:13:05.680Z,102369.69
2022-12-01T06:14:06.620Z,102369.35
2022-12-01T06:15:06.886Z,102369.86
2022-12-01T06:16:08.791Z,102369.52
2022-12-01T06:17:08.900Z,102369.45
2022-12-01T06:18:08.283Z,102369.94
2022-12-01T06:19:09.864Z,102369.95
2022-12-01T06:20:09.303Z,102370.27
2022-12-01T06:21:09.779Z,102370.59
2022-12-01T06:22:10.027Z,102371.44
2022-12-01T06:23:10.314Z,102372.19
2022-12-01T06:24:10.630Z,102372.54
2022-12-01T06:25:11.731Z,102373.03
2022-12-01T06:26:11.973Z,102373.38
2022-12-01T06:27:11.230Z,102374.20
2022-12-01T06:28:11.644Z,102374.52
2022-12-01T06:29:13.165Z,102374.70
2022-12-01T06:30:12.678Z,102374.80
2022-12-01T06:31:12.839Z,102374.69
2022-12-01T06:32:13.368Z,102374.36
2022-12-01T06:33:13.497Z,102374.36
2022-12-01T06:33:22.182Z,102381.75
2022-12-01T06:34:23.005Z,102381.33
2022-12-01T06:35:24.985Z,102381.08
2022-12-01T06:36:23.997Z,102380.41
2022-12-01T06:37:25.741Z,102379.41
2022-12-01T06:38:25.509Z,102379.23
2022-12-01T06:39:25.694Z,102378.64
2022-12-01T06:40:25.962Z,102378.05
2022-12-01T06:41:27.913Z,102378.16
2022-12-01T06:42:28.390Z,102377.89
2022-12-01T06:43:27.996Z,102377.97
2022-12-01T06:44:28.671Z,102378.05
2022-12-01T06:45:28.802Z,102378.32
2022-12-01T06:46:28.897Z,102378.39
2022-12-01T06:47:29.614Z,102378.41
2022-12-01T06:48:30.251Z,102378.66
2022-12-01T06:49:31.278Z,102378.90
2022-12-01T06:50:31.434Z,102378.91
2022-12-01T06:51:31.908Z,102379.73
2022-12-01T06:52:31.065Z,102380.59
2022-12-01T06:53:31.759Z,102380.91
2022-12-01T06:54:33.404Z,102381.99
2022-12-01T06:55:33.764Z,102381.91
2022-12-01T06:55:42.918Z,102398.36
2022-12-01T06:56:43.869Z,102398.19
2022-12-01T06:57:44.139Z,102397.45
2022-12-01T06:58:44.637Z,102397.13
2022-12-01T06:59:45.043Z,102396.12
2022-12-01T07:00:51.797Z,102395.67
2022-12-01T07:01:46.497Z,102394.92
2022-12-01T07:02:47.104Z,102395.08
2022-12-01T07:03:47.345Z,102394.67
2022-12-01T07:04:47.791Z,102394.35
2022-12-01T07:05:49.570Z,102394.93
2022-12-01T07:06:49.030Z,102394.86
2022-12-01T07:07:49.301Z,102395.17
2022-12-01T07:08:49.835Z,102395.36
2022-12-01T07:09:51.379Z,102395.94
2022-12-01T07:10:50.280Z,102396.16
2022-12-01T07:11:52.002Z,102396.42
2022-12-01T07:12:52.071Z,102397.12
2022-12-01T07:13:52.598Z,102397.17
2022-12-01T07:14:51.848Z,102397.17
2022-12-01T07:15:52.532Z,102397.44
2022-12-01T07:16:53.033Z,102397.61
2022-12-01T07:17:53.587Z,102398.20
2022-12-01T07:18:54.181Z,102398.70
2022-12-01T07:19:55.739Z,102398.88
2022-12-01T07:20:54.937Z,102399.20
2022-12-01T07:21:56.156Z,102399.54
2022-12-01T07:22:04.749Z,102412.94
2022-12-01T07:23:05.413Z,102412.94
2022-12-01T07:24:07.384Z,102412.44
2022-12-01T07:25:07.614Z,102411.77
2022-12-01T07:26:06.839Z,102411.59
2022-12-01T07:27:06.826Z,102411.27
2022-12-01T07:28:07.986Z,102411.42
2022-12-01T07:29:08.452Z,102411.03
2022-12-01T07:30:07.697Z,102411.20
2022-12-01T07:31:08.496Z,102410.87
2022-12-01T07:32:09.247Z,102411.27
2022-12-01T07:33:10.886Z,102411.52
2022-12-01T07:34:10.436Z,102411.19
2022-12-01T07:35:10.604Z,102411.61
2022-12-01T07:36:10.779Z,102412.21
2022-12-01T07:37:11.138Z,102412.61
2022-12-01T07:38:15.518Z,102413.46
2022-12-01T07:39:11.853Z,102414.19
2022-12-01T07:40:13.868Z,102414.95
2022-12-01T07:41:13.613Z,102416.05
2022-12-01T07:42:13.911Z,102416.39
2022-12-01T07:43:15.225Z,102416.73
2022-12-01T07:44:15.673Z,102417.06
2022-12-01T07:45:15.138Z,102417.39
2022-12-01T07:46:21.743Z,102418.06
2022-12-01T07:46:24.634Z,102437.78
2022-12-01T07:47:24.650Z,102437.78
2022-12-01T07:48:26.047Z,102437.28
2022-12-01T07:49:25.736Z,102437.11
2022-12-01T07:50:25.900Z,102436.52
2022-12-01T07:51:26.192Z,102436.69
2022-12-01T07:52:27.920Z,102436.18
2022-12-01T07:53:28.130Z,102436.27
2022-12-01T07:54:28.750Z,102436.11
2022-12-01T07:55:28.067Z,102435.94
2022-12-01T07:56:28.214Z,102435.94
2022-12-01T07:57:29.227Z,102435.94
2022-12-01T07:58:28.867Z,102435.84
2022-12-01T07:59:29.404Z,102436.02
2022-12-01T08:00:30.770Z,102435.49
2022-12-01T08:01:29.940Z,102435.33
2022-12-01T08:02:30.474Z,102435.27
2022-12-01T08:03:30.441Z,102435.00
2022-12-01T08:04:32.361Z,102434.15
2022-12-01T08:05:31.725Z,102434.09
2022-12-01T08:06:32.181Z,102433.66
2022-12-01T08:07:33.353Z,102434.16
2022-12-01T08:08:32.331Z,102433.91
2022-12-01T08:09:32.691Z,102433.67
2022-12-01T08:09:41.374Z,102440.63
2022-12-01T08:10:41.343Z,102440.53
2022-12-01T08:11:43.366Z,102440.45
2022-12-01T08:12:42.859Z,102439.95
2022-12-01T08:13:43.799Z,102440.22
2022-12-01T08:14:45.157Z,102439.55
2022-12-01T08:15:44.825Z,102439.55
2022-12-01T08:16:45.249Z,102439.94
2022-12-01T08:17:46.869Z,102439.86
2022-12-01T08:18:47.585Z,102439.45
2022-12-01T08:19:47.173Z,102439.94
2022-12-01T08:20:47.181Z,102440.13
2022-12-01T08:21:48.094Z,102439.63
2022-12-01T08:22:48.925Z,102439.95
2022-12-01T08:23:50.253Z,102439.20
2022-12-01T08:24:49.998Z,102439.69
2022-12-01T08:25:51.724Z,102440.04
2022-12-01T08:26:51.115Z,102440.02
2022-12-01T08:27:52.683Z,102439.70
2022-12-01T08:28:52.047Z,102439.59
2022-12-01T08:29:52.572Z,102439.52
2022-12-01T08:30:54.073Z,102439.27
2022-12-01T08:31:53.368Z,102439.43
2022-12-01T08:32:53.734Z,102439.03
2022-12-01T08:33:02.403Z,102447.52
2022-12-01T08:34:02.953Z,102447.25
2022-12-01T08:35:04.196Z,102446.75
2022-12-01T08:36:03.671Z,102445.65
2022-12-01T08:37:04.144Z,102444.72
2022-12-01T08:38:04.776Z,102444.72
2022-12-01T08:39:06.325Z,102443.56
2022-12-01T08:40:06.240Z,102442.97
2022-12-01T08:41:07.701Z,102442.37
2022-12-01T08:42:07.606Z,102442.31
2022-12-01T08:43:12.334Z,102442.22
2022-12-01T08:44:08.566Z,102441.95
2022-12-01T08:45:09.438Z,102441.13
2022-12-01T08:46:09.839Z,102440.70
2022-12-01T08:47:14.322Z,102440.61
2022-12-01T08:48:10.966Z,102440.95
2022-12-01T08:49:12.274Z,102440.89
2022-12-01T08:50:11.657Z,102440.89
2022-12-01T08:51:13.059Z,102440.61
2022-12-01T08:52:12.197Z,102440.20
2022-12-01T08:53:12.719Z,102440.35
2022-12-01T08:54:12.956Z,102440.11
2022-12-01T08:55:14.821Z,102440.30
2022-12-01T08:56:14.400Z,102440.45
2022-12-01T08:56:23.055Z,102446.66
2022-12-01T08:57:23.291Z,102446.66
2022-12-01T08:58:24.328Z,102446.48
2022-12-01T08:59:23.671Z,102446.25
2022-12-01T09:00:24.047Z,102446.14
2022-12-01T09:01:24.956Z,102446.16
2022-12-01T09:02:25.582Z,102445.80
2022-12-01T09:03:25.964Z,102445.15
2022-12-01T09:04:27.410Z,102444.39
2022-12-01T09:05:27.991Z,102443.72
2022-12-01T09:06:27.170Z,102442.88
2022-12-01T09:07:27.863Z,102442.72
2022-12-01T09:08:28.522Z,102442.05
2022-12-01T09:09:28.715Z,102441.38
2022-12-01T09:10:29.878Z,102440.43
2022-12-01T09:11:28.944Z,102439.52
2022-12-01T09:12:29.963Z,102438.17
2022-12-01T09:13:30.044Z,102437.42
2022-12-01T09:14:31.769Z,102435.89
2022-12-01T09:15:31.321Z,102434.97
2022-12-01T09:16:32.229Z,102433.72
2022-12-01T09:17:32.465Z,102432.70
2022-12-01T09:18:33.057Z,102431.95
2022-12-01T09:19:33.554Z,102430.78
2022-12-01T09:20:35.481Z,102429.66
2022-12-01T09:21:35.363Z,102428.59
2022-12-01T09:21:44.017Z,102418.70
2022-12-01T09:22:44.855Z,102417.97
2022-12-01T09:23:45.332Z,102417.30
2022-12-01T09:24:45.637Z,102416.80
2022-12-01T09:25:45.871Z,102415.96
2022-12-01T09:26:47.115Z,102415.37
2022-12-01T09:27:46.554Z,102414.94
2022-12-01T09:28:46.816Z,102414.21
2022-12-01T09:29:48.491Z,102413.88
2022-12-01T09:30:47.321Z,102413.37
2022-12-01T09:31:47.745Z,102413.26
2022-12-01T09:32:48.571Z,102412.53
2022-12-01T09:33:49.245Z,102412.20
2022-12-01T09:34:49.492Z,102411.36
2022-12-01T09:35:51.295Z,102410.69
2022-12-01T09:36:50.932Z,102410.34
2022-12-01T09:37:52.524Z,102409.84
2022-12-01T09:38:51.860Z,102409.00
2022-12-01T09:39:52.412Z,102408.39
2022-12-01T09:40:52.558Z,102407.55
2022-12-01T09:41:53.051Z,102407.14
2022-12-01T09:42:54.498Z,102406.39
2022-12-01T09:43:54.779Z,102406.12
2022-12-01T09:44:54.491Z,102405.70
2022-12-01T09:45:55.030Z,102404.61
2022-12-01T09:46:04.213Z,102404.30
2022-12-01T09:47:04.902Z,102404.30
2022-12-01T09:48:05.342Z,102403.80
2022-12-01T09:49:06.135Z,102403.52
2022-12-01T09:50:06.615Z,102402.95
2022-12-01T09:51:07.281Z,102402.61
2022-12-01T09:52:07.566Z,102402.36
2022-12-01T09:53:09.053Z,102401.69
2022-12-01T09:54:09.578Z,102401.09
2022-12-01T09:55:09.129Z,102400.59
2022-12-01T09:56:12.947Z,102399.66
2022-12-01T09:57:11.031Z,102398.99
2022-12-01T09:58:11.924Z,102398.77
2022-12-01T09:59:13.367Z,102398.27
2022-12-01T10:00:14.179Z,102397.07
2022-12-01T10:01:12.925Z,102396.64
2022-12-01T10:02:13.368Z,102395.98
2022-12-01T10:03:13.767Z,102395.98
2022-12-01T10:04:15.280Z,102395.56
2022-12-01T10:05:15.011Z,102395.80
2022-12-01T10:06:27.311Z,102395.66
2022-12-01T10:07:15.641Z,102395.30
2022-12-01T10:08:17.046Z,102395.31
2022-12-01T10:09:16.806Z,102395.67
2022-12-01T10:09:25.517Z,102405.16
2022-12-01T10:10:27.391Z,102404.81
2022-12-01T10:11:27.167Z,102404.16
2022-12-01T10:12:27.201Z,102403.91
2022-12-01T10:13:27.925Z,102404.14
2022-12-01T10:14:29.915Z,102403.83
2022-12-01T10:15:29.790Z,102403.81
2022-12-01T10:16:29.870Z,102403.83
2022-12-01T10:17:30.538Z,102403.58
2022-12-01T10:18:31.396Z,102404.23
2022-12-01T10:19:33.230Z,102403.99
2022-12-01T10:20:33.482Z,102404.52
2022-12-01T10:21:33.030Z,102404.73
2022-12-01T10:22:33.181Z,102405.59
2022-12-01T10:23:33.736Z,102405.86
2022-12-01T10:24:34.659Z,102406.77
2022-12-01T10:25:35.937Z,102407.45
2022-12-01T10:26:36.154Z,102408.70
2022-12-01T10:27:36.335Z,102409.20
2022-12-01T10:28:36.073Z,102409.81
2022-12-01T10:29:36.966Z,102410.89
2022-12-01T10:30:37.672Z,102411.08
2022-12-01T10:31:39.419Z,102411.58
2022-12-01T10:32:39.019Z,102412.33
2022-12-01T10:33:39.978Z,102412.48
2022-12-01T10:33:48.615Z,102419.63
2022-12-01T10:34:49.355Z,102418.86
2022-12-01T10:35:50.793Z,102418.79
2022-12-01T10:36:50.825Z,102418.45
2022-12-01T10:37:51.506Z,102418.19
2022-12-01T10:38:52.033Z,102417.97
2022-12-01T10:39:53.522Z,102417.97
2022-12-01T10:40:54.473Z,102417.97
2022-12-01T10:41:55.088Z,102417.80
2022-12-01T10:42:55.372Z,102417.53
2022-12-01T10:43:54.667Z,102417.20
2022-12-01T10:44:56.476Z,102417.03
2022-12-01T10:45:55.648Z,102416.79
2022-12-01T10:46:56.025Z,102416.45
2022-12-01T10:47:59.087Z,102416.45
2022-12-01T10:48:57.254Z,102416.34
2022-12-01T10:49:58.758Z,102416.68
2022-12-01T10:50:58.276Z,102416.63
2022-12-01T10:51:59.841Z,102416.70
2022-12-01T10:52:59.705Z,102416.44
2022-12-01T10:54:00.261Z,102416.28
2022-12-01T10:55:00.746Z,102416.28
2022-12-01T10:55:09.895Z,102420.33
2022-12-01T10:56:10.635Z,102419.73
2022-12-01T10:57:12.445Z,102419.80
2022-12-01T10:58:12.266Z,102419.97
2022-12-01T10:59:13.014Z,102420.05
2022-12-01T11:00:36.105Z,102419.66
2022-12-01T11:01:13.762Z,102420.06
2022-12-01T11:02:14.659Z,102420.23
2022-12-01T11:03:21.382Z,102420.91
2022-12-01T11:04:15.576Z,102421.15
2022-12-01T11:05:15.780Z,102421.56
2022-12-01T11:06:17.253Z,102422.34
2022-12-01T11:07:17.165Z,102422.67